Time;durP1;ratioP1;P1;durP2;ratioP2;P2;SDS_P1;SDS_P2;PMS_P1;PMS_P2;Temp;Humidity;BMP_temperature;BMP_pressure;BME280_temperature;BME280_humidity;BME280_pressure;Samples;Min_cycle;Max_cycle;Signal;HPM_P1;HPM_P2
2023/01/01 00:01:26;;;;;;;5.03;1.80;;;;;;;;;;5011328;28;20057;-63
2023/01/01 00:03:57;;;;;;;8.27;1.60;;;;;;;;;;5011261;28;20070;-64
2023/01/01 00:06:27;;;;;;;7.70;2.22;;;;;;;;;;4994842;28;20053;-63
2023/01/01 00:11:46;;;;;;;4.95;2.30;;;;;;;;;;4978738;28;20089;-63
2023/01/01 00:14:15;;;;;;;6.85;2.30;;;;;;;;;;5010836;28;20054;-63
2023/01/01 00:16:45;;;;;;;5.82;2.10;;;;;;;;;;5039438;28;20059;-63
2023/01/01 00:19:14;;;;;;;5.28;2.10;;;;;;;;;;5050666;28;20065;-63
2023/01/01 00:21:45;;;;;;;4.72;2.20;;;;;;;;;;5001060;28;20057;-63
2023/01/01 00:24:14;;;;;;;6.15;2.22;;;;;;;;;;5050531;28;20056;-64
2023/01/01 00:26:44;;;;;;;7.97;2.30;;;;;;;;;;5077724;28;20056;-63
2023/01/01 00:29:13;;;;;;;10.82;2.50;;;;;;;;;;5092840;28;20498;-64
2023/01/01 00:31:44;;;;;;;5.05;2.55;;;;;;;;;;5040574;28;20051;-64
2023/01/01 00:34:14;;;;;;;5.35;2.88;;;;;;;;;;5092981;28;20048;-64
2023/01/01 00:36:43;;;;;;;9.35;2.95;;;;;;;;;;5093333;28;20047;-64
2023/01/01 00:39:12;;;;;;;8.23;2.83;;;;;;;;;;5049913;28;20156;-64
2023/01/01 00:41:42;;;;;;;5.28;2.22;;;;;;;;;;5050506;28;20071;-63
2023/01/01 00:44:11;;;;;;;6.57;2.42;;;;;;;;;;5010022;28;20046;-64
2023/01/01 00:46:41;;;;;;;4.53;2.13;;;;;;;;;;4977603;28;20534;-64
2023/01/01 00:49:10;;;;;;;8.18;2.83;;;;;;;;;;5010168;28;20050;-63
2023/01/01 00:51:40;;;;;;;7.57;2.45;;;;;;;;;;4977722;28;20120;-64
2023/01/01 00:54:09;;;;;;;10.65;2.85;;;;;;;;;;5010478;28;20494;-63
2023/01/01 00:56:39;;;;;;;9.13;2.70;;;;;;;;;;5010381;28;20064;-64
2023/01/01 00:59:08;;;;;;;7.47;2.53;;;;;;;;;;4993779;28;20500;-65
2023/01/01 01:01:39;;;;;;;6.90;2.58;;;;;;;;;;4977594;28;20498;-63
2023/01/01 01:04:09;;;;;;;4.53;2.33;;;;;;;;;;5010189;28;20062;-64
2023/01/01 01:06:39;;;;;;;6.63;3.03;;;;;;;;;;4961460;28;20387;-63
2023/01/01 01:09:08;;;;;;;7.97;2.63;;;;;;;;;;5009898;28;20053;-65
2023/01/01 01:11:38;;;;;;;7.50;2.83;;;;;;;;;;5010058;28;20061;-63
2023/01/01 01:14:09;;;;;;;7.72;2.92;;;;;;;;;;4977437;28;20516;-65
2023/01/01 01:16:38;;;;;;;6.13;2.47;;;;;;;;;;5018258;28;20552;-64
2023/01/01 01:19:12;;;;;;;6.45;2.85;;;;;;;;;;5029933;28;20094;-64
2023/01/01 01:21:42;;;;;;;7.65;2.20;;;;;;;;;;5007709;28;20052;-64
2023/01/01 01:24:11;;;;;;;4.60;1.77;;;;;;;;;;5091973;28;20055;-64
2023/01/01 01:26:41;;;;;;;8.40;2.65;;;;;;;;;;5072883;28;20062;-64
2023/01/01 01:29:10;;;;;;;6.25;2.20;;;;;;;;;;5092089;28;20048;-67
2023/01/01 01:31:40;;;;;;;4.50;2.20;;;;;;;;;;5056105;28;20063;-64
2023/01/01 01:34:09;;;;;;;5.43;2.70;;;;;;;;;;5091837;28;20039;-64
2023/01/01 01:36:43;;;;;;;5.80;2.70;;;;;;;;;;5056131;28;20519;-65
2023/01/01 01:39:13;;;;;;;7.63;2.90;;;;;;;;;;5091998;28;20040;-64
2023/01/01 01:41:42;;;;;;;13.23;2.58;;;;;;;;;;5091855;28;20044;-65
2023/01/01 01:44:46;;;;;;;6.25;2.40;;;;;;;;;;5056479;28;20052;-64
2023/01/01 01:47:39;;;;;;;8.05;2.63;;;;;;;;;;5091631;28;20491;-64
2023/01/01 01:50:21;;;;;;;7.07;3.00;;;;;;;;;;5091862;28;20060;-65
2023/01/01 01:53:06;;;;;;;5.22;2.63;;;;;;;;;;5040861;28;20399;-64
2023/01/01 01:55:43;;;;;;;7.60;3.10;;;;;;;;;;5042294;28;20055;-67
2023/01/01 01:58:15;;;;;;;7.97;2.97;;;;;;;;;;5039163;28;20048;-64
2023/01/01 02:00:44;;;;;;;5.22;2.80;;;;;;;;;;5056249;28;20503;-64
2023/01/01 02:03:17;;;;;;;8.88;2.50;;;;;;;;;;5022665;28;20063;-64
2023/01/01 02:05:50;;;;;;;9.63;2.75;;;;;;;;;;5091377;28;20044;-64
2023/01/01 02:08:20;;;;;;;;;;;;;;;;;;5092035;28;20040;-63
2023/01/01 02:10:49;;;;;;;9.63;2.70;;;;;;;;;;5091516;28;19927;-63
2023/01/01 02:13:19;;;;;;;7.20;2.75;;;;;;;;;;5095174;28;20043;-63
2023/01/01 02:16:03;;;;;;;8.73;3.20;;;;;;;;;;5044567;28;20052;-63
2023/01/01 02:18:42;;;;;;;7.43;2.70;;;;;;;;;;5095761;28;20051;-63
2023/01/01 02:21:13;;;;;;;;;;;;;;;;;;5096050;28;20491;-64
2023/01/01 02:23:51;;;;;;;;;;;;;;;;;;5093365;28;19927;-63
2023/01/01 02:26:23;;;;;;;7.07;2.92;;;;;;;;;;5076230;28;19927;-65
2023/01/01 02:29:24;;;;;;;6.00;2.85;;;;;;;;;;5093088;28;20530;-63
2023/01/01 02:32:04;;;;;;;6.78;2.88;;;;;;;;;;5093007;28;20557;-64
2023/01/01 02:34:42;;;;;;;7.18;2.53;;;;;;;;;;5042560;28;20692;-64
2023/01/01 02:37:17;;;;;;;6.88;2.60;;;;;;;;;;5042686;28;20044;-63
2023/01/01 02:39:52;;;;;;;7.72;3.05;;;;;;;;;;5093054;28;20048;-63
2023/01/01 02:42:28;;;;;;;7.47;2.97;;;;;;;;;;5092792;28;20052;-63
2023/01/01 02:44:59;;;;;;;4.82;2.63;;;;;;;;;;5052424;28;20045;-63
2023/01/01 02:47:29;;;;;;;6.13;2.50;;;;;;;;;;5052371;28;20453;-64
2023/01/01 02:50:08;;;;;;;7.32;2.75;;;;;;;;;;5020032;28;20059;-63
2023/01/01 02:52:52;;;;;;;5.55;2.80;;;;;;;;;;5052427;28;20041;-64
2023/01/01 02:55:50;;;;;;;7.15;2.90;;;;;;;;;;5035030;28;20055;-63
2023/01/01 03:01:48;;;;;;;7.70;2.90;;;;;;;;;;5052435;28;20412;-63
2023/01/01 03:04:31;;;;;;;6.28;3.00;;;;;;;;;;5052188;28;20045;-63
2023/01/01 03:07:06;;;;;;;5.00;2.70;;;;;;;;;;5018811;28;20049;-63
2023/01/01 03:09:47;;;;;;;5.28;2.58;;;;;;;;;;5052113;28;20063;-63
2023/01/01 03:12:42;;;;;;;6.57;2.63;;;;;;;;;;5051904;28;20517;-63
2023/01/01 03:15:27;;;;;;;4.72;2.50;;;;;;;;;;5057118;28;20048;-62
2023/01/01 03:18:18;;;;;;;5.88;2.58;;;;;;;;;;5042068;28;20056;-64
2023/01/01 03:20:52;;;;;;;6.75;2.88;;;;;;;;;;5092139;28;20491;-64
2023/01/01 03:23:26;;;;;;;5.85;2.83;;;;;;;;;;5058311;28;20518;-63
2023/01/01 03:26:02;;;;;;;9.73;3.28;;;;;;;;;;5042169;28;20407;-63
2023/01/01 03:28:37;;;;;;;10.35;2.58;;;;;;;;;;5092292;28;20051;-63
2023/01/01 03:31:08;;;;;;;7.35;2.95;;;;;;;;;;5091755;28;20047;-64
2023/01/01 03:33:50;;;;;;;7.90;3.28;;;;;;;;;;5091848;28;20078;-63
2023/01/01 03:36:29;;;;;;;5.80;2.60;;;;;;;;;;5041432;28;20059;-63
2023/01/01 03:39:07;;;;;;;4.95;2.40;;;;;;;;;;5075073;28;20059;-64
2023/01/01 03:41:48;;;;;;;11.05;2.72;;;;;;;;;;5094295;28;20044;-64
2023/01/01 03:44:32;;;;;;;6.80;3.20;;;;;;;;;;5058154;28;20063;-64
2023/01/01 03:47:04;;;;;;;6.47;3.63;;;;;;;;;;5058536;28;20048;-64
2023/01/01 03:49:34;;;;;;;8.18;3.70;;;;;;;;;;5093627;28;20044;-64
2023/01/01 03:52:42;;;;;;;8.32;3.80;;;;;;;;;;5043036;28;20067;-63
2023/01/01 03:55:23;;;;;;;10.10;3.92;;;;;;;;;;5041918;28;20055;-63
2023/01/01 03:58:01;;;;;;;9.30;3.95;;;;;;;;;;5093630;28;20044;-63
2023/01/01 04:00:35;;;;;;;12.20;4.55;;;;;;;;;;5058397;28;20542;-63
2023/01/01 04:03:17;;;;;;;8.48;4.57;;;;;;;;;;5093622;28;20070;-65
2023/01/01 04:05:47;;;;;;;9.75;3.53;;;;;;;;;;5093817;28;20491;-63
2023/01/01 04:08:17;;;;;;;9.35;4.00;;;;;;;;;;5050790;28;20057;-65
2023/01/01 04:10:54;;;;;;;8.10;3.08;;;;;;;;;;5034358;28;20501;-66
2023/01/01 04:13:24;;;;;;;13.68;3.55;;;;;;;;;;5050956;28;20409;-63
2023/01/01 04:15:53;;;;;;;7.22;3.13;;;;;;;;;;5050508;28;20481;-65
2023/01/01 04:18:22;;;;;;;8.20;3.20;;;;;;;;;;5050730;28;20049;-64
2023/01/01 04:20:52;;;;;;;6.60;2.45;;;;;;;;;;5017727;28;20065;-64
2023/01/01 04:23:21;;;;;;;8.15;2.97;;;;;;;;;;5051001;28;20049;-66
2023/01/01 04:25:50;;;;;;;12.05;3.40;;;;;;;;;;5033834;28;20056;-64
2023/01/01 04:28:20;;;;;;;6.80;3.05;;;;;;;;;;5017739;28;20057;-64
2023/01/01 04:30:49;;;;;;;7.13;3.00;;;;;;;;;;5050700;28;20072;-67
2023/01/01 04:33:17;;;;;;;11.57;3.20;;;;;;;;;;5050400;28;20067;-64
2023/01/01 04:35:47;;;;;;;6.13;3.15;;;;;;;;;;5049687;28;20057;-63
2023/01/01 04:38:17;;;;;;;11.63;3.60;;;;;;;;;;5049995;28;20049;-64
2023/01/01 04:41:00;;;;;;;7.93;3.25;;;;;;;;;;5050348;28;20057;-64
2023/01/01 04:43:31;;;;;;;7.35;3.28;;;;;;;;;;5050168;28;20068;-64
2023/01/01 04:46:02;;;;;;;7.60;3.35;;;;;;;;;;5073395;28;20063;-66
2023/01/01 04:48:35;;;;;;;6.65;3.30;;;;;;;;;;5092839;28;20051;-63
2023/01/01 04:51:05;;;;;;;8.55;3.20;;;;;;;;;;5092888;28;20083;-66
2023/01/01 04:53:34;;;;;;;11.38;3.00;;;;;;;;;;5092903;28;20066;-64
2023/01/01 04:56:05;;;;;;;7.07;3.08;;;;;;;;;;5092717;28;20563;-63
2023/01/01 04:58:37;;;;;;;9.68;3.20;;;;;;;;;;5041877;28;20792;-64
2023/01/01 05:01:08;;;;;;;7.20;2.90;;;;;;;;;;5029803;28;20053;-64
2023/01/01 05:03:38;;;;;;;8.52;3.45;;;;;;;;;;5030002;28;20089;-64
2023/01/01 05:06:09;;;;;;;6.50;2.42;;;;;;;;;;5030025;28;20057;-63
2023/01/01 05:08:41;;;;;;;7.25;3.03;;;;;;;;;;5029840;28;20045;-63
2023/01/01 05:11:17;;;;;;;7.35;2.80;;;;;;;;;;4980840;28;20052;-63
2023/01/01 05:13:49;;;;;;;5.38;2.63;;;;;;;;;;5029811;28;20525;-64
2023/01/01 05:16:26;;;;;;;9.07;3.17;;;;;;;;;;4981136;28;20053;-63
2023/01/01 05:18:56;;;;;;;7.25;2.83;;;;;;;;;;4989904;28;20050;-63
2023/01/01 05:21:30;;;;;;;7.80;2.45;;;;;;;;;;4957988;28;20050;-63
2023/01/01 05:24:04;;;;;;;9.35;3.17;;;;;;;;;;4990137;28;20503;-64
2023/01/01 05:26:36;;;;;;;12.10;2.70;;;;;;;;;;4958557;28;20057;-63
2023/01/01 05:29:06;;;;;;;6.55;2.72;;;;;;;;;;4957731;28;20050;-63
2023/01/01 05:31:45;;;;;;;5.93;2.60;;;;;;;;;;4973666;28;20450;-63
2023/01/01 05:34:14;;;;;;;6.35;2.75;;;;;;;;;;4990015;28;20054;-64
2023/01/01 05:36:44;;;;;;;7.45;3.25;;;;;;;;;;4990243;28;20061;-63
2023/01/01 05:39:14;;;;;;;4.82;2.40;;;;;;;;;;4983367;28;20064;-63
2023/01/01 05:41:43;;;;;;;4.35;2.40;;;;;;;;;;5049326;28;20044;-63
2023/01/01 05:44:15;;;;;;;5.78;3.22;;;;;;;;;;5049000;28;20623;-64
2023/01/01 05:46:44;;;;;;;;;;;;;;;;;;5048795;28;20048;-62
2023/01/01 05:49:14;;;;;;;5.75;2.75;;;;;;;;;;5015864;28;19921;-64
2023/01/01 05:51:43;;;;;;;5.72;2.55;;;;;;;;;;5065690;28;20731;-63
2023/01/01 05:54:12;;;;;;;5.45;2.63;;;;;;;;;;5049067;28;20139;-63
2023/01/01 05:56:40;;;;;;;5.05;2.78;;;;;;;;;;5072580;28;20047;-63
2023/01/01 05:59:10;;;;;;;8.95;2.90;;;;;;;;;;5040852;28;20056;-63
2023/01/01 06:01:39;;;;;;;7.05;3.20;;;;;;;;;;5091599;28;20399;-63
2023/01/01 06:04:13;;;;;;;7.85;3.20;;;;;;;;;;5056121;28;20051;-63
2023/01/01 06:06:42;;;;;;;8.68;2.67;;;;;;;;;;5091456;28;20044;-63
2023/01/01 06:09:12;;;;;;;6.95;2.47;;;;;;;;;;5091285;28;20043;-64
2023/01/01 06:11:42;;;;;;;7.45;2.50;;;;;;;;;;5048707;28;20056;-64
2023/01/01 06:14:12;;;;;;;5.82;2.92;;;;;;;;;;5000068;28;20061;-63
2023/01/01 06:16:41;;;;;;;7.82;2.50;;;;;;;;;;5048739;28;20056;-64
2023/01/01 06:19:10;;;;;;;5.82;2.58;;;;;;;;;;5048690;28;20068;-63
2023/01/01 06:21:40;;;;;;;6.45;2.40;;;;;;;;;;5015744;28;20061;-63
2023/01/01 06:24:09;;;;;;;8.82;2.63;;;;;;;;;;5048586;28;20072;-63
2023/01/01 06:26:39;;;;;;;11.88;3.10;;;;;;;;;;5032250;28;20060;-63
2023/01/01 06:29:08;;;;;;;7.50;2.85;;;;;;;;;;5048759;28;20060;-66
2023/01/01 06:31:38;;;;;;;16.10;3.13;;;;;;;;;;4983030;28;20056;-63
2023/01/01 06:34:08;;;;;;;10.00;2.90;;;;;;;;;;4983553;28;20057;-64
2023/01/01 06:36:37;;;;;;;6.50;2.47;;;;;;;;;;5048549;28;20068;-63
2023/01/01 06:39:07;;;;;;;8.98;2.75;;;;;;;;;;5032315;28;20060;-64
2023/01/01 06:41:37;;;;;;;16.15;3.10;;;;;;;;;;4999344;28;20057;-64
2023/01/01 06:44:06;;;;;;;8.00;2.60;;;;;;;;;;5048704;28;20045;-63
2023/01/01 06:46:36;;;;;;;6.18;3.42;;;;;;;;;;5008768;28;20173;-64
2023/01/01 06:49:09;;;;;;;6.85;2.50;;;;;;;;;;5024725;28;20595;-62
2023/01/01 06:51:41;;;;;;;11.20;3.25;;;;;;;;;;4999300;28;20045;-63
2023/01/01 06:54:11;;;;;;;5.68;2.47;;;;;;;;;;4998951;28;20053;-63
2023/01/01 06:56:41;;;;;;;9.43;2.83;;;;;;;;;;5048253;28;20049;-64
2023/01/01 06:59:12;;;;;;;6.68;2.90;;;;;;;;;;5002135;28;20060;-64
2023/01/01 07:01:42;;;;;;;6.60;3.13;;;;;;;;;;5035992;28;20056;-63
2023/01/01 07:04:14;;;;;;;5.05;2.55;;;;;;;;;;5002744;28;20060;-64
2023/01/01 07:06:44;;;;;;;8.00;3.00;;;;;;;;;;5052123;28;20045;-64
2023/01/01 07:09:13;;;;;;;9.77;3.15;;;;;;;;;;5052225;28;20048;-67
2023/01/01 07:11:43;;;;;;;6.90;2.53;;;;;;;;;;5051994;28;20064;-63
2023/01/01 07:14:13;;;;;;;6.72;2.78;;;;;;;;;;5035315;28;20057;-64
2023/01/01 07:16:42;;;;;;;6.50;2.65;;;;;;;;;;5051553;28;20053;-64
2023/01/01 07:19:11;;;;;;;7.82;2.50;;;;;;;;;;5052054;28;20053;-65
2023/01/01 07:21:44;;;;;;;9.23;3.00;;;;;;;;;;5035066;28;20060;-64
2023/01/01 07:24:16;;;;;;;8.27;3.25;;;;;;;;;;5038807;28;20403;-64
2023/01/01 07:26:46;;;;;;;9.25;2.90;;;;;;;;;;5094391;28;20538;-65
2023/01/01 07:29:15;;;;;;;5.93;2.55;;;;;;;;;;5094273;28;20040;-64
2023/01/01 07:31:45;;;;;;;4.53;2.45;;;;;;;;;;5009885;28;20059;-64
2023/01/01 07:34:18;;;;;;;5.72;2.50;;;;;;;;;;5058478;28;20059;-64
2023/01/01 07:36:49;;;;;;;7.55;2.25;;;;;;;;;;5093927;28;20044;-64
2023/01/01 07:39:19;;;;;;;7.10;2.60;;;;;;;;;;5094500;28;20067;-64
2023/01/01 07:41:48;;;;;;;8.82;2.72;;;;;;;;;;5094219;28;20048;-64
2023/01/01 07:44:17;;;;;;;5.32;2.75;;;;;;;;;;5094056;28;20510;-64
2023/01/01 07:46:47;;;;;;;7.50;3.10;;;;;;;;;;5094006;28;20369;-64
2023/01/01 07:49:17;;;;;;;8.07;3.22;;;;;;;;;;5094073;28;20376;-64
2023/01/01 07:51:46;;;;;;;4.88;2.65;;;;;;;;;;5093710;28;20075;-66
2023/01/01 07:54:15;;;;;;;5.28;2.50;;;;;;;;;;5094091;28;20044;-64
2023/01/01 07:56:45;;;;;;;7.03;2.78;;;;;;;;;;5041665;28;20063;-64
2023/01/01 07:59:14;;;;;;;5.90;2.53;;;;;;;;;;5074726;28;20059;-63
2023/01/01 08:01:48;;;;;;;5.93;2.65;;;;;;;;;;5093613;28;20040;-64
2023/01/01 08:04:17;;;;;;;7.22;2.67;;;;;;;;;;5093919;28;20051;-63
2023/01/01 08:06:47;;;;;;;10.40;2.80;;;;;;;;;;5093503;28;20048;-64
2023/01/01 08:09:16;;;;;;;7.65;2.80;;;;;;;;;;5049993;28;20057;-63
2023/01/01 08:11:51;;;;;;;8.75;2.65;;;;;;;;;;5050877;28;20063;-63
2023/01/01 08:14:20;;;;;;;;;;;;;;;;;;5051037;28;20052;-63
2023/01/01 08:16:50;;;;;;;6.00;2.40;;;;;;;;;;5017384;28;19925;-64
2023/01/01 08:19:19;;;;;;;7.63;2.65;;;;;;;;;;5050840;28;20064;-64
2023/01/01 08:21:49;;;;;;;6.00;2.53;;;;;;;;;;5017019;28;20053;-63
2023/01/01 08:24:19;;;;;;;8.85;2.80;;;;;;;;;;5050565;28;20061;-63
2023/01/01 08:26:49;;;;;;;6.90;2.80;;;;;;;;;;5050263;28;20060;-64
2023/01/01 08:29:19;;;;;;;7.82;2.40;;;;;;;;;;5050479;28;20057;-63
2023/01/01 08:31:48;;;;;;;6.35;2.35;;;;;;;;;;5050453;28;20413;-63
2023/01/01 08:34:18;;;;;;;7.50;2.65;;;;;;;;;;5050219;28;20057;-63
2023/01/01 08:36:47;;;;;;;5.85;2.58;;;;;;;;;;5018261;28;20058;-63
2023/01/01 08:39:17;;;;;;;6.05;2.67;;;;;;;;;;5050146;28;20079;-64
2023/01/01 08:41:46;;;;;;;8.43;2.65;;;;;;;;;;5050377;28;20040;-64
2023/01/01 08:44:15;;;;;;;8.80;2.53;;;;;;;;;;5050120;28;20545;-64
2023/01/01 08:46:45;;;;;;;5.63;2.97;;;;;;;;;;5017015;28;20529;-64
2023/01/01 08:49:15;;;;;;;6.18;2.65;;;;;;;;;;5033142;28;20049;-63
2023/01/01 08:51:45;;;;;;;11.77;3.67;;;;;;;;;;5017078;28;20419;-63
2023/01/01 08:54:14;;;;;;;7.40;2.78;;;;;;;;;;5049697;28;20056;-63
2023/01/01 08:56:43;;;;;;;10.02;2.90;;;;;;;;;;5050342;28;20056;-64
2023/01/01 08:59:13;;;;;;;4.38;2.30;;;;;;;;;;5032905;28;20501;-63
2023/01/01 09:01:42;;;;;;;5.63;2.60;;;;;;;;;;5049948;28;20044;-63
2023/01/01 09:04:12;;;;;;;6.30;2.50;;;;;;;;;;5049877;28;20064;-64
2023/01/01 09:06:43;;;;;;;6.18;2.75;;;;;;;;;;5050206;28;20078;-63
2023/01/01 09:09:12;;;;;;;6.25;2.90;;;;;;;;;;5009515;28;20508;-66
2023/01/01 09:11:53;;;;;;;7.53;2.50;;;;;;;;;;5010275;28;20065;-64
2023/01/01 09:14:23;;;;;;;5.80;2.50;;;;;;;;;;5009933;28;20512;-64
2023/01/01 09:16:53;;;;;;;6.13;2.50;;;;;;;;;;5010154;28;20056;-64
2023/01/01 09:19:23;;;;;;;7.57;2.78;;;;;;;;;;5009762;28;20058;-64
2023/01/01 09:21:53;;;;;;;6.90;2.30;;;;;;;;;;5009927;28;20049;-64
2023/01/01 09:24:23;;;;;;;6.35;2.80;;;;;;;;;;5009876;28;20068;-64
2023/01/01 09:26:53;;;;;;;6.07;2.40;;;;;;;;;;5010343;28;20046;-64
2023/01/01 09:29:22;;;;;;;5.68;2.30;;;;;;;;;;5009711;28;20070;-64
2023/01/01 09:31:52;;;;;;;7.20;2.22;;;;;;;;;;4980198;28;20401;-64
2023/01/01 09:34:21;;;;;;;8.93;2.75;;;;;;;;;;5049399;28;20071;-64
2023/01/01 09:36:51;;;;;;;10.80;2.05;;;;;;;;;;5032692;28;20068;-64
2023/01/01 09:39:20;;;;;;;5.72;2.65;;;;;;;;;;5052413;28;20053;-65
2023/01/01 09:42:12;;;;;;;9.65;2.58;;;;;;;;;;5072804;28;20052;-64
2023/01/01 09:44:44;;;;;;;7.28;2.35;;;;;;;;;;5091746;28;20529;-65
2023/01/01 09:47:31;;;;;;;4.28;2.15;;;;;;;;;;5091814;28;20054;-64
2023/01/01 09:50:11;;;;;;;4.20;2.60;;;;;;;;;;5091662;28;20060;-66
2023/01/01 09:52:59;;;;;;;3.85;2.10;;;;;;;;;;5091967;28;20044;-65
2023/01/01 09:55:29;;;;;;;7.25;1.92;;;;;;;;;;5056147;28;20055;-64
2023/01/01 09:57:59;;;;;;;6.20;1.90;;;;;;;;;;5048870;28;20528;-64
2023/01/01 10:00:31;;;;;;;9.23;2.33;;;;;;;;;;5016544;28;20049;-65
2023/01/01 10:03:20;;;;;;;4.68;2.42;;;;;;;;;;4999651;28;20049;-65
2023/01/01 10:05:53;;;;;;;4.13;2.17;;;;;;;;;;5009240;28;20054;-64
2023/01/01 10:08:59;;;;;;;5.75;2.28;;;;;;;;;;5008994;28;20058;-65
2023/01/01 10:11:44;;;;;;;4.50;2.00;;;;;;;;;;4992937;28;20053;-65
2023/01/01 10:14:35;;;;;;;4.40;1.50;;;;;;;;;;4993149;28;20054;-65
2023/01/01 10:17:31;;;;;;;4.07;1.45;;;;;;;;;;4976608;28;20050;-65
2023/01/01 10:20:10;;;;;;;7.78;1.80;;;;;;;;;;4931913;29;20532;-65
2023/01/01 10:22:41;;;;;;;;;;;;;;;;;;4932163;29;20516;-65
2023/01/01 10:25:21;;;;;;;2.97;1.50;;;;;;;;;;4931726;29;19923;-65
2023/01/01 10:28:05;;;;;;;3.13;1.67;;;;;;;;;;4884629;29;20071;-65
2023/01/01 10:30:35;;;;;;;2.35;1.70;;;;;;;;;;4931948;29;20059;-65
2023/01/01 10:33:14;;;;;;;2.65;1.20;;;;;;;;;;4933092;29;20067;-65
2023/01/01 10:35:51;;;;;;;6.47;1.38;;;;;;;;;;4945802;29;20553;-65
2023/01/01 10:38:23;;;;;;;3.65;1.63;;;;;;;;;;4954320;29;20055;-65
2023/01/01 10:41:07;;;;;;;4.85;1.42;;;;;;;;;;4954364;29;20051;-65
2023/01/01 10:43:48;;;;;;;2.38;1.27;;;;;;;;;;4937919;28;20074;-65
2023/01/01 10:46:22;;;;;;;3.55;1.40;;;;;;;;;;4993209;28;20058;-65
2023/01/01 10:49:10;;;;;;;2.53;1.33;;;;;;;;;;4978038;28;20143;-65
2023/01/01 10:51:49;;;;;;;4.13;1.30;;;;;;;;;;4960293;28;20050;-65
2023/01/01 10:54:24;;;;;;;;;;;;;;;;;;4977088;28;20503;-66
2023/01/01 10:57:12;;;;;;;3.20;1.30;;;;;;;;;;5018832;28;19920;-65
2023/01/01 10:59:43;;;;;;;3.42;1.45;;;;;;;;;;5013765;28;20047;-64
2023/01/01 11:02:25;;;;;;;2.30;1.25;;;;;;;;;;5052056;28;20156;-65
2023/01/01 11:05:17;;;;;;;3.30;1.35;;;;;;;;;;5052133;28;20124;-65
2023/01/01 11:07:50;;;;;;;4.40;1.33;;;;;;;;;;5052266;28;20056;-64
2023/01/01 11:10:24;;;;;;;2.60;1.33;;;;;;;;;;5018662;28;20057;-64
2023/01/01 11:12:54;;;;;;;3.08;1.30;;;;;;;;;;5051907;28;20044;-65
2023/01/01 11:15:40;;;;;;;2.17;1.38;;;;;;;;;;5018553;28;20049;-65
2023/01/01 11:18:27;;;;;;;4.30;1.35;;;;;;;;;;5051941;28;20072;-65
2023/01/01 11:20:58;;;;;;;4.40;1.65;;;;;;;;;;5051693;28;20065;-65
2023/01/01 11:23:29;;;;;;;4.05;1.92;;;;;;;;;;5051953;28;20045;-64
2023/01/01 11:26:01;;;;;;;3.78;1.80;;;;;;;;;;5002231;28;20076;-65
2023/01/01 11:28:33;;;;;;;2.15;1.30;;;;;;;;;;5051754;28;20397;-64
2023/01/01 11:31:09;;;;;;;3.05;1.30;;;;;;;;;;5001962;28;20054;-65
2023/01/01 11:33:53;;;;;;;1.98;1.17;;;;;;;;;;5051748;28;20052;-65
2023/01/01 11:36:24;;;;;;;3.88;1.40;;;;;;;;;;5035469;28;20056;-65
2023/01/01 11:39:25;;;;;;;3.42;1.30;;;;;;;;;;5053415;28;20044;-65
2023/01/01 11:41:57;;;;;;;3.58;1.23;;;;;;;;;;5075878;28;20415;-65
2023/01/01 11:44:44;;;;;;;3.00;1.33;;;;;;;;;;5092408;28;20044;-65
2023/01/01 11:47:41;;;;;;;3.00;1.50;;;;;;;;;;5093871;28;20040;-67
2023/01/01 11:50:13;;;;;;;2.60;1.38;;;;;;;;;;4992002;28;20054;-66
2023/01/01 11:52:48;;;;;;;2.55;1.40;;;;;;;;;;4992218;28;20063;-66
2023/01/01 11:55:41;;;;;;;3.60;1.48;;;;;;;;;;4943978;28;20058;-66
2023/01/01 11:58:34;;;;;;;2.95;1.40;;;;;;;;;;4991851;28;20057;-66
2023/01/01 12:01:12;;;;;;;5.18;1.42;;;;;;;;;;4991552;28;20066;-66
2023/01/01 12:03:44;;;;;;;2.58;1.40;;;;;;;;;;4992174;28;20054;-66
2023/01/01 12:06:30;;;;;;;3.50;1.20;;;;;;;;;;4991742;28;20046;-66
2023/01/01 12:09:04;;;;;;;2.08;1.42;;;;;;;;;;4991584;28;20050;-66
2023/01/01 12:11:37;;;;;;;4.00;1.65;;;;;;;;;;4991505;28;20054;-66
2023/01/01 12:14:45;;;;;;;3.05;1.58;;;;;;;;;;4952841;29;20058;-66
2023/01/01 12:17:40;;;;;;;2.33;1.10;;;;;;;;;;4933960;29;20063;-66
2023/01/01 12:20:22;;;;;;;2.42;1.30;;;;;;;;;;4876907;29;20060;-67
2023/01/01 12:22:55;;;;;;;2.72;1.40;;;;;;;;;;4877027;29;20065;-66
2023/01/01 12:25:37;;;;;;;5.57;1.30;;;;;;;;;;4831287;29;20575;-66
2023/01/01 12:28:35;;;;;;;2.30;1.35;;;;;;;;;;4893410;29;20063;-67
2023/01/01 12:31:07;;;;;;;2.67;1.30;;;;;;;;;;4898476;29;20056;-66
2023/01/01 12:34:04;;;;;;;2.90;1.13;;;;;;;;;;4883580;29;20059;-65
2023/01/01 12:36:40;;;;;;;5.90;1.45;;;;;;;;;;4898751;29;20060;-66
2023/01/01 12:39:31;;;;;;;2.45;0.93;;;;;;;;;;4867580;29;20060;-66
2023/01/01 12:42:25;;;;;;;2.15;1.05;;;;;;;;;;4914261;29;20056;-67
2023/01/01 12:45:26;;;;;;;2.38;1.17;;;;;;;;;;4913898;29;20063;-67
2023/01/01 12:48:23;;;;;;;2.40;1.00;;;;;;;;;;4913991;29;20056;-68
2023/01/01 12:51:06;;;;;;;1.02;0.57;;;;;;;;;;4904329;29;20051;-69
2023/01/01 12:54:02;;;;;;;2.13;0.60;;;;;;;;;;4967313;28;20525;-67
2023/01/01 12:57:01;;;;;;;1.95;0.75;;;;;;;;;;5025680;28;20052;-69
2023/01/01 12:59:38;;;;;;;1.83;0.90;;;;;;;;;;5092524;28;20043;-67
2023/01/01 13:02:28;;;;;;;2.47;0.80;;;;;;;;;;5042009;28;20048;-69
2023/01/01 13:05:07;;;;;;;0.95;0.70;;;;;;;;;;5092453;28;20048;-69
2023/01/01 13:07:44;;;;;;;1.77;1.05;;;;;;;;;;5057097;28;20063;-69
2023/01/01 13:10:45;;;;;;;1.52;0.68;;;;;;;;;;5092363;28;20039;-71
2023/01/01 13:13:15;;;;;;;1.98;1.00;;;;;;;;;;5092588;28;20048;-67
2023/01/01 13:15:48;;;;;;;2.00;0.80;;;;;;;;;;5056825;28;20048;-65
2023/01/01 13:18:21;;;;;;;1.05;0.60;;;;;;;;;;5057296;28;20491;-66
2023/01/01 13:20:53;;;;;;;;;;;;;;;;;;5092558;28;20032;-67
2023/01/01 13:23:37;;;;;;;1.15;0.82;;;;;;;;;;5092693;28;19920;-66
2023/01/01 13:26:21;;;;;;;2.80;0.80;;;;;;;;;;5039877;28;20044;-67
2023/01/01 13:28:57;;;;;;;1.77;0.65;;;;;;;;;;5040029;28;20052;-68
2023/01/01 13:31:40;;;;;;;3.40;0.90;;;;;;;;;;5056472;28;20071;-68
2023/01/01 13:34:46;;;;;;;2.50;1.42;;;;;;;;;;5092243;28;20043;-68
2023/01/01 13:37:27;;;;;;;0.70;0.60;;;;;;;;;;5056174;28;20048;-68
2023/01/01 13:40:04;;;;;;;1.67;0.75;;;;;;;;;;5029409;28;20045;-69
2023/01/01 13:42:40;;;;;;;1.13;0.50;;;;;;;;;;5029507;28;20054;-68
2023/01/01 13:45:25;;;;;;;0.82;0.68;;;;;;;;;;4980406;28;20501;-69
2023/01/01 13:48:38;;;;;;;1.05;0.60;;;;;;;;;;5029689;28;20050;-68
2023/01/01 13:51:45;;;;;;;1.55;0.60;;;;;;;;;;5029317;28;20049;-68
2023/01/01 13:54:39;;;;;;;1.30;0.55;;;;;;;;;;5009838;28;20058;-69
2023/01/01 13:57:30;;;;;;;0.98;0.60;;;;;;;;;;4976600;28;20093;-67
2023/01/01 14:00:20;;;;;;;1.10;1.00;;;;;;;;;;5009766;28;20500;-67
2023/01/01 14:03:01;;;;;;;0.95;0.70;;;;;;;;;;4993761;28;20512;-68
2023/01/01 14:05:35;;;;;;;0.80;0.57;;;;;;;;;;5009329;28;20050;-70
2023/01/01 14:08:05;;;;;;;2.28;0.60;;;;;;;;;;4992624;28;20075;-68
2023/01/01 14:10:48;;;;;;;1.02;0.60;;;;;;;;;;4931046;28;20059;-69
2023/01/01 14:13:20;;;;;;;1.15;0.57;;;;;;;;;;4992855;28;20061;-69
2023/01/01 14:16:02;;;;;;;1.83;0.60;;;;;;;;;;5009056;28;20397;-68
2023/01/01 14:18:47;;;;;;;1.30;0.80;;;;;;;;;;5062214;28;20052;-68
2023/01/01 14:21:20;;;;;;;2.08;1.52;;;;;;;;;;5068838;28;21172;-69
2023/01/01 14:24:06;;;;;;;1.48;0.80;;;;;;;;;;5068945;28;20064;-68
2023/01/01 14:26:37;;;;;;;0.85;0.60;;;;;;;;;;5068884;28;20040;-69
2023/01/01 14:29:09;;;;;;;1.58;1.30;;;;;;;;;;5071947;28;20070;-69
2023/01/01 14:31:44;;;;;;;2.53;0.70;;;;;;;;;;5056000;28;20051;-67
2023/01/01 14:34:14;;;;;;;1.75;0.70;;;;;;;;;;5091491;28;20051;-64
2023/01/01 14:36:52;;;;;;;1.50;1.00;;;;;;;;;;5089328;28;20056;-68
2023/01/01 14:39:33;;;;;;;2.03;0.80;;;;;;;;;;5056146;28;20052;-69
2023/01/01 14:42:06;;;;;;;2.22;0.75;;;;;;;;;;5091213;28;20040;-69
2023/01/01 14:44:40;;;;;;;0.77;0.60;;;;;;;;;;5091334;28;20048;-69
2023/01/01 14:47:26;;;;;;;2.70;0.80;;;;;;;;;;5091191;28;20044;-69
2023/01/01 14:50:02;;;;;;;4.22;0.90;;;;;;;;;;5091056;28;20056;-70
2023/01/01 14:52:34;;;;;;;1.58;0.60;;;;;;;;;;5091336;28;20048;-69
2023/01/01 14:55:05;;;;;;;1.13;0.68;;;;;;;;;;5040835;28;20051;-70
2023/01/01 14:57:36;;;;;;;1.40;0.63;;;;;;;;;;5091220;28;20377;-70
2023/01/01 15:00:25;;;;;;;1.67;0.73;;;;;;;;;;4987820;28;20508;-68
2023/01/01 15:03:13;;;;;;;0.90;0.70;;;;;;;;;;5068585;28;20063;-69
2023/01/01 15:05:45;;;;;;;1.42;0.93;;;;;;;;;;5035046;28;20052;-69
2023/01/01 15:08:20;;;;;;;1.60;0.52;;;;;;;;;;5018587;28;20060;-70
2023/01/01 15:10:51;;;;;;;2.40;0.63;;;;;;;;;;5068329;28;20520;-69
2023/01/01 15:13:24;;;;;;;1.63;0.85;;;;;;;;;;5035686;28;20053;-68
2023/01/01 15:15:56;;;;;;;3.28;1.20;;;;;;;;;;5068368;28;20401;-67
2023/01/01 15:18:46;;;;;;;1.63;0.88;;;;;;;;;;5018926;28;20053;-67
2023/01/01 15:21:44;;;;;;;0.80;0.60;;;;;;;;;;5022036;28;20053;-66
2023/01/01 15:24:26;;;;;;;2.00;0.85;;;;;;;;;;5011883;28;20068;-67
2023/01/01 15:26:58;;;;;;;0.73;0.50;;;;;;;;;;4976279;28;20192;-68
2023/01/01 15:29:32;;;;;;;1.85;0.70;;;;;;;;;;5007987;28;20053;-69
2023/01/01 15:32:11;;;;;;;0.77;0.60;;;;;;;;;;4992318;28;20168;-67
2023/01/01 15:34:48;;;;;;;1.17;0.50;;;;;;;;;;4992360;28;20074;-65
2023/01/01 15:37:32;;;;;;;2.60;0.70;;;;;;;;;;4998590;28;20506;-65
2023/01/01 15:40:22;;;;;;;3.08;0.75;;;;;;;;;;4978775;28;20050;-65
2023/01/01 15:42:54;;;;;;;1.00;0.70;;;;;;;;;;4995677;28;20058;-65